Time;durP1;ratioP1;P1;durP2;ratioP2;P2;SDS_P1;SDS_P2;PMS_P1;PMS_P2;Temp;Humidity;BMP_temperature;BMP_pressure;BME280_temperature;BME280_humidity;BME280_pressure;Samples;Min_cycle;Max_cycle;Signal;HPM_P1;HPM_P2
2022/09/20 00:00:24;;;;;;;4.55;1.40;;;;;;;10.00;100.00;98452.16;2622817;28;20072;-79
2022/09/20 00:02:00;;;;;;;1.85;1.50;;;;;;;10.03;100.00;98451.22;2619850;28;20091;-79
2022/09/20 00:03:16;;;;;;;2.00;1.10;;;;;;;10.07;100.00;98447.63;2623426;28;20048;-78
2022/09/20 00:04:31;;;;;;;2.03;1.23;;;;;;;10.03;100.00;98446.00;2621483;28;20207;-79
2022/09/20 00:05:47;;;;;;;1.60;1.40;;;;;;;10.17;100.00;98440.38;2620575;28;20097;-82
2022/09/20 00:07:03;;;;;;;1.90;1.30;;;;;;;10.16;100.00;98447.38;2622038;28;20407;-79
2022/09/20 00:08:19;;;;;;;2.88;1.90;;;;;;;10.09;100.00;98451.06;2621897;28;20757;-80
2022/09/20 00:09:34;;;;;;;2.83;1.70;;;;;;;10.05;100.00;98446.81;2621606;28;20117;-79
2022/09/20 00:10:51;;;;;;;3.80;1.60;;;;;;;10.07;100.00;98450.25;2621425;28;20127;-78
2022/09/20 00:12:07;;;;;;;3.70;1.65;;;;;;;9.99;100.00;98453.06;2621076;28;20098;-78
2022/09/20 00:13:23;;;;;;;1.88;1.38;;;;;;;10.08;100.00;98449.34;2619660;28;20528;-79
2022/09/20 00:14:38;;;;;;;2.40;1.65;;;;;;;10.07;100.00;98454.63;2619905;28;20045;-79
2022/09/20 00:15:54;;;;;;;2.45;1.73;;;;;;;10.19;100.00;98449.03;2619767;28;20084;-79
2022/09/20 00:17:09;;;;;;;3.38;1.60;;;;;;;10.07;100.00;98452.00;2620094;28;20048;-79
2022/09/20 00:18:26;;;;;;;2.92;1.83;;;;;;;10.02;100.00;98454.75;2619709;28;20063;-79
2022/09/20 00:19:41;;;;;;;3.38;1.70;;;;;;;10.08;100.00;98451.09;2623568;28;20466;-80
2022/09/20 00:20:57;;;;;;;2.72;1.88;;;;;;;10.14;100.00;98458.78;2622924;28;20048;-81
2022/09/20 00:22:12;;;;;;;2.25;1.75;;;;;;;10.18;100.00;98449.94;2619715;28;20055;-78
2022/09/20 00:23:29;;;;;;;3.22;2.20;;;;;;;10.16;100.00;98456.97;2619816;28;20090;-79
2022/09/20 00:24:46;;;;;;;2.78;1.90;;;;;;;10.19;100.00;98449.03;2620056;28;20078;-78
2022/09/20 00:26:03;;;;;;;3.17;1.73;;;;;;;10.22;100.00;98451.59;2621172;28;20486;-81
2022/09/20 00:27:18;;;;;;;2.40;1.60;;;;;;;10.07;100.00;98455.47;2620667;28;20053;-80
2022/09/20 00:28:34;;;;;;;3.45;1.85;;;;;;;9.95;100.00;98459.25;2620657;28;20423;-80
2022/09/20 00:29:49;;;;;;;3.33;1.80;;;;;;;9.92;100.00;98454.13;2620574;28;20048;-80
2022/09/20 00:31:06;;;;;;;3.08;2.00;;;;;;;10.01;100.00;98455.63;2621860;28;20654;-79
2022/09/20 00:32:22;;;;;;;4.28;2.00;;;;;;;10.08;100.00;98457.19;2621026;28;20870;-80
2022/09/20 00:35:12;;;;;;;3.90;1.90;;;;;;;10.04;100.00;98459.00;2619963;28;20044;-81
2022/09/20 00:36:28;;;;;;;5.30;1.58;;;;;;;10.10;100.00;98458.00;2620019;28;20052;-80
2022/09/20 00:37:43;;;;;;;3.67;1.50;;;;;;;10.01;100.00;98460.88;2621514;28;20052;-80
2022/09/20 00:39:02;;;;;;;5.72;1.50;;;;;;;9.95;100.00;98461.00;2620922;28;20048;-80
2022/09/20 00:40:20;;;;;;;2.83;1.60;;;;;;;10.09;100.00;98460.66;2620162;28;20479;-80
2022/09/20 00:41:36;;;;;;;2.05;1.30;;;;;;;10.16;100.00;98455.25;2620200;28;20135;-80
2022/09/20 00:42:52;;;;;;;1.17;1.00;;;;;;;10.17;100.00;98454.34;2622114;28;20166;-80
2022/09/20 00:44:40;;;;;;;3.00;1.42;;;;;;;10.11;100.00;98451.88;2621068;28;20434;-81
2022/09/20 00:46:02;;;;;;;4.47;1.13;;;;;;;10.11;100.00;98459.72;2621679;28;20529;-79
2022/09/20 00:47:26;;;;;;;1.27;1.13;;;;;;;10.23;100.00;98453.31;2620331;28;20044;-80
2022/09/20 00:48:42;;;;;;;1.63;1.30;;;;;;;10.25;100.00;98456.75;2620054;28;20078;-80
2022/09/20 00:50:13;;;;;;;2.13;1.10;;;;;;;10.28;100.00;98458.44;2622847;28;20058;-81
2022/09/20 00:51:36;;;;;;;1.73;1.10;;;;;;;10.20;100.00;98449.91;2620839;28;20376;-79
2022/09/20 00:53:05;;;;;;;2.33;1.17;;;;;;;10.26;100.00;98453.22;2622503;28;20052;-79
2022/09/20 00:54:23;;;;;;;2.20;1.20;;;;;;;10.24;100.00;98455.03;2621558;28;20131;-79
2022/09/20 00:55:50;;;;;;;1.55;1.00;;;;;;;10.19;100.00;98454.28;2621709;28;20052;-80
2022/09/20 00:57:06;;;;;;;2.88;1.20;;;;;;;10.18;100.00;98455.19;2621750;28;20083;-79
2022/09/20 00:58:24;;;;;;;1.95;1.10;;;;;;;10.12;100.00;98455.34;2619033;28;20044;-79
2022/09/20 00:59:45;;;;;;;2.25;1.10;;;;;;;10.12;100.00;98457.97;2621253;28;20143;-79
2022/09/20 01:01:03;;;;;;;2.40;1.20;;;;;;;10.04;100.00;98452.94;2619877;28;20106;-79
2022/09/20 01:02:29;;;;;;;2.63;1.60;;;;;;;10.08;100.00;98456.34;2619140;28;20047;-78
2022/09/20 01:03:46;;;;;;;1.38;1.23;;;;;;;10.08;100.00;98454.56;2619760;28;20193;-79
2022/09/20 01:05:02;;;;;;;4.18;1.30;;;;;;;10.12;100.00;98463.19;2623293;28;20464;-80
2022/09/20 01:06:18;;;;;;;1.42;0.90;;;;;;;10.08;100.00;98456.34;2622535;28;20056;-79
2022/09/20 01:07:34;;;;;;;1.60;1.05;;;;;;;10.06;100.00;98452.88;2624179;28;20491;-79
2022/09/20 01:08:53;;;;;;;1.90;1.13;;;;;;;10.04;100.00;98459.00;2622444;28;20495;-79
2022/09/20 01:10:09;;;;;;;2.10;0.90;;;;;;;9.93;100.00;98457.56;2624679;28;20052;-79
2022/09/20 01:11:25;;;;;;;2.05;1.00;;;;;;;9.94;100.00;98457.56;2623950;28;20392;-80
2022/09/20 01:12:44;;;;;;;1.60;0.90;;;;;;;9.97;100.00;98464.44;2621664;28;20052;-79
2022/09/20 01:14:00;;;;;;;1.30;0.90;;;;;;;10.06;100.00;98460.72;2621450;28;20127;-79
2022/09/20 01:15:17;;;;;;;1.15;0.88;;;;;;;10.07;100.00;98457.25;2622643;28;20055;-79
2022/09/20 01:16:34;;;;;;;1.23;0.85;;;;;;;10.12;100.00;98457.97;2624682;28;20064;-79
2022/09/20 01:17:54;;;;;;;1.45;1.23;;;;;;;10.14;100.00;98457.03;2624421;28;20570;-79
2022/09/20 01:19:24;;;;;;;1.58;1.02;;;;;;;10.20;100.00;98449.91;2620979;28;20048;-79
2022/09/20 01:20:41;;;;;;;2.28;1.05;;;;;;;10.21;100.00;98449.88;2623450;28;20051;-80
2022/09/20 01:21:59;;;;;;;2.20;0.93;;;;;;;10.12;100.00;98456.19;2624094;28;20056;-85
2022/09/20 01:23:26;;;;;;;2.50;1.10;;;;;;;10.21;100.00;98449.88;2623104;28;20059;-78
2022/09/20 01:25:09;;;;;;;2.88;1.30;;;;;;;10.24;100.00;98446.31;2622030;28;20052;-80
2022/09/20 01:26:51;;;;;;;1.13;0.90;;;;;;;10.28;100.00;98446.19;2623633;28;20560;-80
2022/09/20 01:28:06;;;;;;;2.30;1.02;;;;;;;10.32;100.00;98445.22;2616070;28;20064;-79
2022/09/20 01:29:34;;;;;;;3.30;0.80;;;;;;;10.28;100.00;98440.97;2622856;28;20468;-79
2022/09/20 01:31:02;;;;;;;3.25;1.13;;;;;;;10.35;100.00;98436.41;2621713;28;20524;-80
2022/09/20 01:32:23;;;;;;;2.20;0.90;;;;;;;10.32;100.00;98446.97;2625096;28;20051;-78
2022/09/20 01:33:48;;;;;;;2.35;1.20;;;;;;;10.10;100.00;98442.31;2622213;28;20186;-78
2022/09/20 01:35:06;;;;;;;3.60;1.02;;;;;;;10.03;100.00;98441.59;2622163;28;20052;-79
2022/09/20 01:36:42;;;;;;;1.48;0.82;;;;;;;9.91;100.00;98438.44;2623043;28;20580;-80
2022/09/20 01:38:03;;;;;;;1.63;1.00;;;;;;;9.78;100.00;98437.88;2623179;28;20045;-79
2022/09/20 01:39:50;;;;;;;1.40;1.00;;;;;;;9.75;100.00;98437.06;2624364;28;20051;-80
2022/09/20 01:41:27;;;;;;;1.45;0.90;;;;;;;9.81;100.00;98445.69;2623550;28;20410;-85
2022/09/20 01:42:53;;;;;;;1.85;0.95;;;;;;;9.57;100.00;98446.25;2623356;28;20044;-84
2022/09/20 01:44:12;;;;;;;1.70;0.82;;;;;;;9.56;100.00;98441.03;2623755;28;20048;-79
2022/09/20 01:45:30;;;;;;;1.17;0.90;;;;;;;9.61;100.00;98447.00;2622175;28;20496;-80
2022/09/20 01:46:52;;;;;;;1.95;1.23;;;;;;;9.67;100.00;98444.25;2624147;28;20063;-79
2022/09/20 01:48:32;;;;;;;3.33;1.63;;;;;;;9.74;100.00;98447.59;2624236;28;20083;-79
2022/09/20 01:50:02;;;;;;;2.25;0.93;;;;;;;9.83;100.00;98449.09;2624241;28;20051;-79
2022/09/20 01:51:45;;;;;;;1.83;1.00;;;;;;;9.95;100.00;98448.81;2622680;28;20060;-78
2022/09/20 01:53:20;;;;;;;1.98;0.82;;;;;;;10.01;100.00;98453.03;2621591;28;20475;-79
2022/09/20 01:55:04;;;;;;;2.33;0.80;;;;;;;9.98;100.00;98456.56;2621120;28;20605;-79
2022/09/20 01:56:38;;;;;;;1.77;1.10;;;;;;;9.93;100.00;98455.84;2622325;28;20060;-79
2022/09/20 01:58:20;;;;;;;1.77;0.93;;;;;;;9.92;100.00;98453.25;2623353;28;20044;-81
2022/09/20 02:00:10;;;;;;;1.63;1.00;;;;;;;9.89;100.00;98452.44;2594954;28;20049;-81
2022/09/20 02:02:04;;;;;;;3.00;1.02;;;;;;;9.85;100.00;98455.16;2623756;28;20117;-79
2022/09/20 02:03:30;;;;;;;0.77;0.73;;;;;;;9.93;100.00;98460.19;2623459;28;20101;-79
2022/09/20 02:05:23;;;;;;;1.98;1.02;;;;;;;9.92;100.00;98454.13;2622847;28;20557;-80
2022/09/20 02:06:57;;;;;;;2.25;0.90;;;;;;;9.92;100.00;98451.50;2622029;28;20079;-80
2022/09/20 02:08:29;;;;;;;2.30;1.10;;;;;;;9.74;100.00;98453.66;2621633;28;20040;-83
2022/09/20 02:09:59;;;;;;;1.95;1.00;;;;;;;9.87;100.00;98459.47;2624120;28;20134;-79
2022/09/20 02:11:18;;;;;;;3.22;1.08;;;;;;;9.91;100.00;98452.38;2622267;28;20048;-79
2022/09/20 02:12:53;;;;;;;2.38;1.25;;;;;;;9.91;100.00;98459.38;2622903;28;20056;-79
2022/09/20 02:14:34;;;;;;;1.45;1.00;;;;;;;9.88;100.00;98455.94;2621321;28;20411;-80
2022/09/20 02:16:09;;;;;;;2.67;1.20;;;;;;;9.81;100.00;98454.38;2620983;28;20502;-80
2022/09/20 02:17:40;;;;;;;2.03;0.90;;;;;;;9.66;100.00;98452.13;2622437;28;20048;-81
2022/09/20 02:19:24;;;;;;;1.63;1.00;;;;;;;9.66;100.00;98446.91;2621985;28;20080;-79
2022/09/20 02:20:45;;;;;;;2.45;1.00;;;;;;;9.63;100.00;98445.22;2622322;28;20052;-80
2022/09/20 02:22:25;;;;;;;2.22;1.00;;;;;;;9.64;100.00;98446.97;2621796;28;20049;-83
2022/09/20 02:24:18;;;;;;;1.85;1.00;;;;;;;9.61;100.00;98450.50;2624641;28;20048;-79
2022/09/20 02:26:00;;;;;;;1.60;1.00;;;;;;;9.47;100.00;98452.56;2621730;28;20059;-79
2022/09/20 02:28:03;;;;;;;5.25;1.10;;;;;;;9.45;100.00;98454.38;2620900;28;20125;-80
2022/09/20 02:30:01;;;;;;;1.98;1.10;;;;;;;9.33;100.00;98452.88;2598839;28;20071;-79
2022/09/20 02:32:10;;;;;;;3.92;1.00;;;;;;;9.29;100.00;98454.72;2601577;28;20548;-79
2022/09/20 02:33:40;;;;;;;1.45;0.82;;;;;;;9.23;100.00;98457.47;2620712;28;20044;-80
2022/09/20 02:35:17;;;;;;;2.15;1.15;;;;;;;9.32;100.00;98457.25;2622689;28;20048;-79
2022/09/20 02:37:04;;;;;;;2.35;1.10;;;;;;;9.28;100.00;98457.34;2622739;28;20048;-79
2022/09/20 02:38:39;;;;;;;1.17;1.00;;;;;;;9.11;100.00;98455.97;2623602;28;20045;-80
2022/09/20 02:40:06;;;;;;;2.75;1.10;;;;;;;9.22;100.00;98454.88;2621388;28;20044;-80
2022/09/20 02:41:47;;;;;;;1.67;1.20;;;;;;;9.15;100.00;98454.13;2622195;28;20067;-81
2022/09/20 02:43:37;;;;;;;3.10;1.17;;;;;;;9.28;100.00;98457.34;2623306;28;20126;-83
2022/09/20 02:45:10;;;;;;;1.75;1.10;;;;;;;9.26;100.00;98459.16;2620798;28;20635;-80
2022/09/20 02:47:13;;;;;;;1.95;1.38;;;;;;;9.37;100.00;98457.16;2621825;28;20044;-79
2022/09/20 02:48:41;;;;;;;1.70;1.10;;;;;;;9.41;100.00;98453.56;2603735;28;20095;-80
2022/09/20 02:50:15;;;;;;;4.55;1.20;;;;;;;9.43;100.00;98456.16;2623577;28;20464;-79
2022/09/20 02:51:40;;;;;;;2.05;0.93;;;;;;;9.46;100.00;98459.53;2622543;28;20106;-80
2022/09/20 02:53:17;;;;;;;2.22;1.40;;;;;;;9.43;100.00;98459.63;2622833;28;20048;-79
2022/09/20 02:55:03;;;;;;;2.30;1.40;;;;;;;9.51;100.00;98454.22;2622954;28;20128;-79
2022/09/20 02:56:41;;;;;;;3.97;1.00;;;;;;;9.28;100.00;98462.59;2621779;28;20047;-79
2022/09/20 02:58:27;;;;;;;2.45;1.20;;;;;;;9.37;100.00;98467.63;2621437;28;20047;-80
2022/09/20 02:59:58;;;;;;;2.58;1.20;;;;;;;9.45;100.00;98456.97;2619853;28;20059;-79
2022/09/20 03:01:23;;;;;;;2.05;1.30;;;;;;;9.50;100.00;98467.31;2621888;28;20053;-80
2022/09/20 03:03:13;;;;;;;1.92;1.13;;;;;;;9.50;100.00;98470.78;2622074;28;20136;-80
2022/09/20 03:04:49;;;;;;;2.10;1.15;;;;;;;9.57;100.00;98469.75;2623781;28;20055;-79
2022/09/20 03:06:36;;;;;;;1.83;1.30;;;;;;;9.49;100.00;98466.47;2621278;28;20067;-80
2022/09/20 03:08:03;;;;;;;2.22;1.20;;;;;;;9.50;100.00;98476.00;2623028;28;20471;-79
2022/09/20 03:09:43;;;;;;;5.22;1.45;;;;;;;9.28;100.00;98473.03;2623128;28;20524;-80
2022/09/20 03:11:31;;;;;;;3.20;1.27;;;;;;;9.22;100.00;98475.75;2623142;28;20047;-79
2022/09/20 03:13:12;;;;;;;3.72;1.48;;;;;;;9.09;100.00;98473.44;2621415;28;20079;-80
2022/09/20 03:14:33;;;;;;;2.28;1.30;;;;;;;9.14;100.00;98476.81;2623236;28;20048;-78
2022/09/20 03:16:08;;;;;;;1.50;1.10;;;;;;;9.18;100.00;98477.59;2623489;28;20062;-80
2022/09/20 03:17:35;;;;;;;1.50;1.10;;;;;;;9.07;100.00;98477.81;2620561;28;20089;-80
2022/09/20 03:19:16;;;;;;;2.33;1.15;;;;;;;9.30;100.00;98476.47;2621985;28;20056;-80
2022/09/20 03:20:46;;;;;;;2.38;1.30;;;;;;;9.37;100.00;98478.06;2621326;28;20064;-79
2022/09/20 03:22:20;;;;;;;2.13;1.27;;;;;;;9.22;100.00;98481.00;2622177;28;20052;-79
2022/09/20 03:23:55;;;;;;;2.03;1.45;;;;;;;9.06;100.00;98481.31;2623053;28;20569;-80
2022/09/20 03:25:35;;;;;;;3.28;1.70;;;;;;;9.29;100.00;98485.19;2620186;28;20052;-79
2022/09/20 03:27:15;;;;;;;4.53;1.58;;;;;;;9.33;100.00;98481.63;2621945;28;20056;-79
2022/09/20 03:28:46;;;;;;;2.85;1.20;;;;;;;9.34;100.00;98475.50;2618830;28;20056;-80
2022/09/20 03:30:17;;;;;;;3.33;1.42;;;;;;;9.37;100.00;98488.50;2621643;28;20074;-85
2022/09/20 03:32:09;;;;;;;1.80;1.30;;;;;;;9.22;100.00;98486.22;2620581;28;20145;-81
2022/09/20 03:33:52;;;;;;;3.17;1.27;;;;;;;9.17;100.00;98481.97;2623297;28;20048;-79
2022/09/20 03:35:29;;;;;;;1.40;1.10;;;;;;;9.39;100.00;98485.84;2620649;28;20469;-80
2022/09/20 03:37:12;;;;;;;2.28;1.35;;;;;;;9.19;100.00;98484.56;2619848;28;20090;-79
2022/09/20 03:38:34;;;;;;;4.00;1.15;;;;;;;9.31;100.00;98489.50;2620503;28;20087;-79
2022/09/20 03:40:23;;;;;;;3.67;2.33;;;;;;;9.24;100.00;98492.28;2618214;28;20056;-78
2022/09/20 03:42:06;;;;;;;2.28;1.35;;;;;;;9.40;100.00;98488.44;2621964;28;20441;-78
2022/09/20 03:43:48;;;;;;;;;;;;;;;9.29;100.00;98487.81;2620616;28;20403;-77
2022/09/20 03:45:06;;;;;;;1.27;1.10;;;;;;;9.43;100.00;98495.38;2598420;28;20503;-79
2022/09/20 03:46:28;;;;;;;2.22;1.30;;;;;;;9.36;100.00;98486.81;2619378;28;20052;-79
2022/09/20 03:48:12;;;;;;;1.73;1.20;;;;;;;9.19;100.00;98490.63;2620264;28;20044;-79
2022/09/20 03:49:46;;;;;;;2.85;0.93;;;;;;;9.34;100.00;98488.56;2620192;28;20556;-79
2022/09/20 03:51:39;;;;;;;1.70;1.27;;;;;;;9.49;100.00;98489.97;2621676;28;20055;-81
2022/09/20 03:53:04;;;;;;;3.28;1.42;;;;;;;9.33;100.00;98492.06;2619822;28;20510;-80
2022/09/20 03:54:38;;;;;;;1.52;1.20;;;;;;;9.18;100.00;98490.66;2620125;28;20563;-81
2022/09/20 03:56:09;;;;;;;1.35;1.10;;;;;;;9.27;100.00;98492.22;2620731;28;20059;-79
2022/09/20 03:57:43;;;;;;;1.75;1.10;;;;;;;9.23;100.00;98490.56;2619608;28;20131;-80
2022/09/20 03:59:01;;;;;;;2.42;1.25;;;;;;;9.38;100.00;98492.84;2620208;28;20056;-80
2022/09/20 04:00:23;;;;;;;2.08;1.33;;;;;;;9.33;100.00;98492.94;2621683;28;20673;-80
2022/09/20 04:01:44;;;;;;;2.30;1.60;;;;;;;9.35;100.00;98492.88;2621855;28;20052;-80
2022/09/20 04:03:23;;;;;;;3.35;1.40;;;;;;;9.25;100.00;98494.00;2623024;28;20094;-84
2022/09/20 04:04:43;;;;;;;2.22;1.30;;;;;;;9.40;100.00;98492.78;2620827;28;20056;-78
2022/09/20 04:06:10;;;;;;;3.78;1.35;;;;;;;9.44;100.00;98492.69;2620220;28;20075;-78
2022/09/20 04:07:47;;;;;;;2.45;1.38;;;;;;;9.26;100.00;98493.13;2621813;28;20051;-79
2022/09/20 04:09:33;;;;;;;1.70;1.50;;;;;;;9.13;100.00;98484.66;2621671;28;20138;-79
2022/09/20 04:11:44;;;;;;;1.38;1.17;;;;;;;9.12;100.00;98489.03;2622712;28;20402;-79
2022/09/20 04:13:27;;;;;;;1.50;1.10;;;;;;;9.07;100.00;98496.09;2591391;28;20060;-79
2022/09/20 04:15:20;;;;;;;3.80;1.25;;;;;;;9.18;100.00;98493.28;2614326;28;20097;-79
2022/09/20 04:16:48;;;;;;;2.92;1.20;;;;;;;9.15;100.00;98493.31;2619851;28;20084;-79
2022/09/20 04:18:22;;;;;;;2.08;1.25;;;;;;;9.17;100.00;98495.03;2621840;28;20055;-79
2022/09/20 04:19:47;;;;;;;1.90;1.38;;;;;;;9.18;100.00;98493.28;2620142;28;20051;-79
2022/09/20 04:21:16;;;;;;;2.42;1.27;;;;;;;9.16;100.00;98490.69;2620338;28;20052;-79
2022/09/20 04:22:32;;;;;;;3.40;1.33;;;;;;;9.08;100.00;98505.69;2619521;28;20056;-78
2022/09/20 04:24:06;;;;;;;1.92;1.33;;;;;;;9.12;100.00;98504.72;2621222;28;20052;-78
2022/09/20 04:25:28;;;;;;;2.42;1.20;;;;;;;9.11;100.00;98505.59;2621197;28;20048;-79
2022/09/20 04:26:49;;;;;;;2.28;1.40;;;;;;;9.11;100.00;98507.34;2621373;28;20070;-79
2022/09/20 04:28:20;;;;;;;3.60;1.50;;;;;;;9.11;100.00;98504.72;2619913;28;20498;-80
2022/09/20 04:29:47;;;;;;;4.03;1.40;;;;;;;9.17;100.00;98502.00;2620944;28;20048;-80
2022/09/20 04:31:23;;;;;;;5.80;1.58;;;;;;;9.36;100.00;98512.06;2621990;28;20093;-79
2022/09/20 04:32:45;;;;;;;2.45;1.42;;;;;;;9.46;100.00;98509.19;2621571;28;20518;-79
2022/09/20 04:34:07;;;;;;;3.33;1.45;;;;;;;9.38;100.00;98508.53;2621549;28;20061;-81
2022/09/20 04:37:34;;;;;;;3.90;1.83;;;;;;;9.51;100.00;98508.25;2619370;28;20412;-80
2022/09/20 04:39:43;;;;;;;3.60;1.20;;;;;;;9.52;100.00;98507.34;2619372;28;20052;-81
2022/09/20 04:41:17;;;;;;;1.73;1.20;;;;;;;9.58;100.00;98507.19;2597720;28;20845;-80
2022/09/20 04:42:57;;;;;;;3.28;1.48;;;;;;;9.57;100.00;98502.88;2625457;28;20399;-82
2022/09/20 04:44:22;;;;;;;5.28;1.10;;;;;;;9.51;100.00;98503.03;2625284;28;20048;-81
2022/09/20 04:46:05;;;;;;;2.42;1.27;;;;;;;9.57;100.00;98506.34;2625262;28;20051;-80
2022/09/20 04:47:59;;;;;;;1.83;1.02;;;;;;;9.55;100.00;98505.50;2621030;28;20060;-80
2022/09/20 04:49:32;;;;;;;1.23;1.08;;;;;;;9.41;100.00;98500.59;2622855;28;20097;-79
2022/09/20 04:51:03;;;;;;;;;;;;;;;9.28;100.00;98502.63;2623090;28;20053;-79
2022/09/20 04:52:39;;;;;;;1.88;1.30;;;;;;;9.41;100.00;98505.84;2623851;28;20434;-79
2022/09/20 04:54:04;;;;;;;2.20;1.23;;;;;;;9.42;100.00;98502.31;2601436;28;20053;-81
2022/09/20 04:55:44;;;;;;;1.23;1.05;;;;;;;9.35;100.00;98511.19;2621643;28;20052;-80
2022/09/20 04:57:23;;;;;;;1.02;0.93;;;;;;;9.24;100.00;98524.47;2621849;28;20075;-79
2022/09/20 04:58:45;;;;;;;2.47;1.40;;;;;;;9.28;100.00;98510.44;2623340;28;20052;-79
2022/09/20 05:00:12;;;;;;;2.63;1.50;;;;;;;9.36;100.00;98514.66;2622747;28;20039;-79
2022/09/20 05:02:17;;;;;;;3.30;1.10;;;;;;;9.39;100.00;98512.84;2623182;28;20040;-79
2022/09/20 05:03:57;;;;;;;1.90;1.20;;;;;;;9.58;100.00;98517.66;2622671;28;20079;-78
2022/09/20 05:05:34;;;;;;;1.73;1.00;;;;;;;9.46;100.00;98521.41;2621121;28;20055;-79
2022/09/20 05:07:11;;;;;;;1.50;1.02;;;;;;;9.49;100.00;98518.72;2621563;28;20097;-79
2022/09/20 05:08:48;;;;;;;1.52;1.20;;;;;;;9.46;100.00;98524.88;2620897;28;20040;-79
2022/09/20 05:10:29;;;;;;;1.77;1.17;;;;;;;9.50;100.00;98517.84;2622643;28;20052;-78
2022/09/20 05:12:22;;;;;;;2.53;1.10;;;;;;;9.35;100.00;98521.63;2595903;28;20069;-78
2022/09/20 05:13:52;;;;;;;5.65;1.30;;;;;;;9.40;100.00;98524.16;2621635;28;20681;-79
2022/09/20 05:15:22;;;;;;;1.45;1.23;;;;;;;9.37;100.00;98521.59;2623847;28;20071;-77
2022/09/20 05:16:49;;;;;;;4.82;1.20;;;;;;;9.50;100.00;98524.78;2622808;28;20060;-79
2022/09/20 05:18:27;;;;;;;2.35;1.15;;;;;;;9.43;100.00;98527.56;2623816;28;20671;-78
2022/09/20 05:20:05;;;;;;;1.50;1.17;;;;;;;9.53;100.00;98528.22;2622661;28;20052;-79
2022/09/20 05:21:42;;;;;;;2.45;1.10;;;;;;;9.57;100.00;98532.50;2621852;28;20055;-79
2022/09/20 05:23:22;;;;;;;1.98;1.00;;;;;;;9.62;100.00;98534.97;2622450;28;20066;-81
2022/09/20 05:24:51;;;;;;;1.70;1.10;;;;;;;9.64;100.00;98535.84;2623597;28;20892;-79
2022/09/20 05:26:21;;;;;;;2.30;1.23;;;;;;;9.59;100.00;98541.16;2622321;28;20135;-79
2022/09/20 05:27:53;;;;;;;1.60;1.27;;;;;;;9.41;100.00;98536.31;2622183;28;20048;-78
2022/09/20 05:29:19;;;;;;;1.50;1.10;;;;;;;9.59;100.00;98546.38;2622936;28;20458;-78
2022/09/20 05:30:46;;;;;;;3.70;1.40;;;;;;;9.40;100.00;98539.81;2623528;28;20052;-79
2022/09/20 05:32:02;;;;;;;2.75;1.50;;;;;;;9.42;100.00;98541.53;2623619;28;20862;-78
2022/09/20 05:33:32;;;;;;;2.80;1.30;;;;;;;9.55;100.00;98549.09;2624067;28;20044;-79
2022/09/20 05:34:59;;;;;;;2.20;1.10;;;;;;;9.62;100.00;98550.66;2621800;28;20948;-79
2022/09/20 05:36:26;;;;;;;1.88;1.10;;;;;;;9.75;100.00;98549.50;2622402;28;20669;-78
2022/09/20 05:38:09;;;;;;;2.40;1.10;;;;;;;9.84;100.00;98547.56;2620401;28;20058;-78
2022/09/20 05:39:39;;;;;;;1.98;1.23;;;;;;;9.62;100.00;98548.06;2623303;28;20052;-78
2022/09/20 05:41:17;;;;;;;1.90;1.20;;;;;;;9.49;100.00;98544.88;2621208;28;20052;-79
2022/09/20 05:42:46;;;;;;;2.42;1.08;;;;;;;9.54;100.00;98552.59;2621110;28;20079;-78
2022/09/20 05:44:39;;;;;;;2.72;1.30;;;;;;;9.53;100.00;98548.28;2621449;28;20052;-79
2022/09/20 05:46:14;;;;;;;2.85;1.30;;;;;;;9.47;100.00;98557.09;2618238;28;20067;-78
2022/09/20 05:47:51;;;;;;;2.55;1.10;;;;;;;9.47;100.00;98557.94;2621530;28;20048;-79
2022/09/20 05:49:42;;;;;;;2.60;1.35;;;;;;;9.46;100.00;98558.00;2623738;28;20040;-78
2022/09/20 05:51:19;;;;;;;2.15;1.10;;;;;;;9.50;100.00;98564.88;2621133;28;20059;-84
2022/09/20 05:52:59;;;;;;;1.88;1.23;;;;;;;9.52;100.00;98560.47;2622109;28;20055;-83
2022/09/20 05:54:24;;;;;;;5.53;1.20;;;;;;;9.59;100.00;98559.47;2622697;28;20060;-77
2022/09/20 05:55:49;;;;;;;2.00;1.30;;;;;;;9.67;100.00;98561.91;2622925;28;20059;-78
2022/09/20 05:57:26;;;;;;;3.75;1.40;;;;;;;9.66;100.00;98568.03;2621253;28;20555;-78
2022/09/20 05:59:08;;;;;;;1.77;1.27;;;;;;;9.67;100.00;98568.88;2621705;28;20102;-77
2022/09/20 06:00:30;;;;;;;1.63;1.30;;;;;;;9.71;100.00;98563.53;2622442;28;20495;-77
2022/09/20 06:01:51;;;;;;;2.28;1.10;;;;;;;9.60;100.00;98562.91;2622164;28;20632;-76
2022/09/20 06:03:38;;;;;;;1.45;1.08;;;;;;;9.81;100.00;98566.81;2620466;28;20057;-79
2022/09/20 06:05:03;;;;;;;1.75;1.20;;;;;;;9.69;100.00;98567.06;2621922;28;20040;-77
2022/09/20 06:06:42;;;;;;;3.80;1.50;;;;;;;9.84;100.00;98561.50;2621965;28;20505;-77
2022/09/20 06:08:18;;;;;;;2.40;1.25;;;;;;;9.86;100.00;98567.56;2621517;28;20047;-77
2022/09/20 06:09:59;;;;;;;3.42;1.17;;;;;;;9.72;100.00;98567.03;2622243;28;20612;-77
2022/09/20 06:11:32;;;;;;;2.85;1.40;;;;;;;9.92;100.00;98571.81;2620974;28;20503;-77
2022/09/20 06:13:08;;;;;;;3.40;1.70;;;;;;;10.03;100.00;98566.31;2621785;28;20051;-76
2022/09/20 06:14:50;;;;;;;2.75;1.20;;;;;;;10.11;100.00;98572.19;2621502;28;20044;-76
2022/09/20 06:16:12;;;;;;;2.25;1.30;;;;;;;10.01;100.00;98571.56;2621080;28;20255;-77
2022/09/20 06:17:41;;;;;;;4.00;1.50;;;;;;;10.00;100.00;98563.78;2621771;28;20063;-78
2022/09/20 06:19:23;;;;;;;3.38;1.42;;;;;;;10.17;100.00;98569.47;2621407;28;20056;-76
2022/09/20 06:20:53;;;;;;;1.92;1.48;;;;;;;10.25;100.00;98569.28;2622299;28;20130;-77
2022/09/20 06:22:36;;;;;;;2.72;1.20;;;;;;;10.13;100.00;98572.19;2621323;28;20071;-78
2022/09/20 06:23:57;;;;;;;2.38;1.30;;;;;;;10.27;100.00;98571.84;2622637;28;20121;-76
2022/09/20 06:25:24;;;;;;;3.30;1.30;;;;;;;10.29;100.00;98570.91;2621799;28;20486;-76
2022/09/20 06:26:41;;;;;;;2.90;1.10;;;;;;;10.21;100.00;98574.59;2621249;28;20044;-77
2022/09/20 06:28:14;;;;;;;1.65;1.20;;;;;;;10.44;100.00;98568.84;2622621;28;20402;-77
2022/09/20 06:29:34;;;;;;;4.10;1.20;;;;;;;10.25;100.00;98577.13;2621249;28;20057;-76
2022/09/20 06:30:52;;;;;;;1.33;1.15;;;;;;;10.32;100.00;98572.59;2621227;28;20045;-77
2022/09/20 06:32:07;;;;;;;2.80;1.20;;;;;;;10.32;100.00;98573.44;2621598;28;20044;-78
2022/09/20 06:33:27;;;;;;;2.45;1.13;;;;;;;10.36;100.00;98578.63;2621045;28;20048;-77
2022/09/20 06:34:44;;;;;;;3.00;1.30;;;;;;;10.35;100.00;98575.13;2621424;28;20037;-76
2022/09/20 06:41:56;;;;;;;1.15;0.98;;;;;;;10.62;100.00;98579.75;2620709;28;20506;-79
2022/09/20 06:43:13;;;;;;;1.10;1.00;;;;;;;10.62;100.00;98579.75;2621870;28;20142;-77
2022/09/20 06:44:29;;;;;;;3.28;1.20;;;;;;;10.40;100.00;98578.47;2622440;28;20540;-77
2022/09/20 06:45:44;;;;;;;1.33;1.20;;;;;;;10.42;100.00;98581.97;2622256;28;20150;-76
2022/09/20 06:47:00;;;;;;;3.03;1.17;;;;;;;10.49;100.00;98584.44;2621800;28;20075;-77
2022/09/20 06:48:18;;;;;;;1.30;1.20;;;;;;;10.43;100.00;98583.69;2621313;28;20066;-76
2022/09/20 06:49:34;;;;;;;5.38;1.75;;;;;;;10.58;100.00;98587.66;2621566;28;20049;-77
2022/09/20 06:50:51;;;;;;;2.80;1.40;;;;;;;10.43;100.00;98582.81;2621350;28;20139;-77
2022/09/20 06:52:15;;;;;;;1.63;1.50;;;;;;;10.63;100.00;98581.47;2621659;28;20058;-76
2022/09/20 06:53:32;;;;;;;4.25;1.80;;;;;;;10.57;100.00;98588.56;2621445;28;20628;-76
2022/09/20 06:54:52;;;;;;;3.53;1.23;;;;;;;10.80;100.00;98586.25;2621716;28;20503;-78
2022/09/20 06:56:14;;;;;;;2.65;1.33;;;;;;;10.63;100.00;98584.09;2622060;28;20077;-77
2022/09/20 06:57:36;;;;;;;4.82;1.83;;;;;;;10.75;100.00;98583.72;2620864;28;20088;-77
2022/09/20 06:58:52;;;;;;;3.53;1.52;;;;;;;10.65;100.00;98585.75;2621332;28;20793;-76
2022/09/20 07:00:14;;;;;;;4.50;1.60;;;;;;;10.69;100.00;98589.16;2620059;28;20059;-77
2022/09/20 07:01:30;;;;;;;6.38;2.35;;;;;;;10.69;100.00;98592.63;2620384;28;20071;-77
2022/09/20 07:02:46;;;;;;;2.08;1.48;;;;;;;10.60;100.00;98587.63;2620554;28;20041;-76
2022/09/20 07:04:03;;;;;;;3.33;2.35;;;;;;;10.74;100.00;98593.38;2620548;28;20413;-80
2022/09/20 07:05:21;;;;;;;2.40;1.60;;;;;;;10.76;100.00;98592.47;2621626;28;20098;-80
2022/09/20 07:06:37;;;;;;;3.45;1.90;;;;;;;10.83;100.00;98592.25;2621798;28;20076;-77
2022/09/20 07:07:57;;;;;;;5.70;1.50;;;;;;;10.86;100.00;98591.34;2620358;28;20057;-76
2022/09/20 07:09:12;;;;;;;3.10;1.52;;;;;;;10.94;100.00;98594.59;2620511;28;20044;-76
2022/09/20 07:10:28;;;;;;;3.30;1.65;;;;;;;10.97;100.00;98596.28;2622390;28;20040;-76